Time;durP1;ratioP1;P1;durP2;ratioP2;P2;SDS_P1;SDS_P2;PMS_P1;PMS_P2;Temp;Humidity;BMP_temperature;BMP_pressure;BME280_temperature;BME280_humidity;BME280_pressure;Samples;Min_cycle;Max_cycle;Signal;HPM_P1;HPM_P2
2024/01/07 00:01:04;;;;;;;59.45;54.60;;;;;;;4.36;100.00;99851.16;5010552;28;20058;-51
2024/01/07 00:03:33;;;;;;;60.60;55.60;;;;;;;4.46;100.00;99864.81;5003695;28;20420;-52
2024/01/07 00:05:59;;;;;;;58.40;53.40;;;;;;;4.43;100.00;99862.56;5003474;28;20508;-52
2024/01/07 00:08:26;;;;;;;61.95;56.83;;;;;;;4.68;100.00;99859.56;4995113;28;20062;-52
2024/01/07 00:10:53;;;;;;;61.28;56.17;;;;;;;4.57;100.00;99863.53;4995957;28;20046;-53
2024/01/07 00:13:20;;;;;;;64.35;59.00;;;;;;;4.51;100.00;99865.06;4999596;28;20084;-52
2024/01/07 00:15:47;;;;;;;56.60;51.90;;;;;;;4.59;100.00;99866.75;5005659;28;20061;-52
2024/01/07 00:18:13;;;;;;;53.50;49.10;;;;;;;4.77;100.00;99855.78;5003671;28;20138;-52
2024/01/07 00:20:42;;;;;;;59.42;54.35;;;;;;;4.85;100.00;99850.41;5005042;28;20514;-53
2024/01/07 00:23:09;;;;;;;66.72;61.25;;;;;;;5.43;100.00;99842.31;5001924;28;20540;-52
2024/01/07 00:25:36;;;;;;;59.80;54.90;;;;;;;5.09;100.00;99836.03;5003510;28;20050;-52
2024/01/07 00:28:02;;;;;;;61.72;56.80;;;;;;;5.22;100.00;99838.75;5007344;28;20046;-53
2024/01/07 00:30:30;;;;;;;57.30;51.97;;;;;;;5.04;100.00;99848.94;5016603;28;20451;-51
2024/01/07 00:32:57;;;;;;;62.67;57.55;;;;;;;5.07;100.00;99831.94;5017522;28;20493;-50
2024/01/07 00:35:23;;;;;;;58.17;53.28;;;;;;;4.92;100.00;99834.66;5014446;28;20057;-63
2024/01/07 00:37:52;;;;;;;54.60;49.72;;;;;;;4.81;100.00;99830.72;5006062;28;20434;-52
2024/01/07 00:40:19;;;;;;;57.25;52.33;;;;;;;4.85;100.00;99839.88;5008733;28;20427;-52
2024/01/07 00:42:45;;;;;;;60.97;55.63;;;;;;;4.87;100.00;99830.00;5003762;28;20076;-52
2024/01/07 00:45:12;;;;;;;65.78;59.90;;;;;;;4.99;100.00;99817.94;5002351;28;20045;-53
2024/01/07 00:47:39;;;;;;;62.95;57.67;;;;;;;5.05;100.00;99816.34;4999396;28;20053;-51
2024/01/07 00:50:07;;;;;;;60.42;55.47;;;;;;;5.43;100.00;99816.00;4998478;28;20053;-52
2024/01/07 00:52:35;;;;;;;63.90;58.42;;;;;;;5.49;100.00;99821.28;5004456;28;20124;-53
2024/01/07 00:55:03;;;;;;;64.00;58.67;;;;;;;5.87;100.00;99826.13;5002380;28;20056;-52
2024/01/07 00:57:30;;;;;;;59.33;54.42;;;;;;;6.30;100.00;99825.91;4999713;28;20042;-52
2024/01/07 00:59:57;;;;;;;68.28;62.78;;;;;;;6.60;100.00;99820.28;5001151;28;20050;-53
2024/01/07 01:02:24;;;;;;;91.30;84.65;;;;;;;6.73;100.00;99809.72;4999217;28;20338;-52
2024/01/07 01:04:51;;;;;;;79.47;72.85;;;;;;;7.19;100.00;99803.59;5012684;28;20054;-53
2024/01/07 01:07:18;;;;;;;81.82;75.03;;;;;;;7.24;100.00;99797.69;5001528;28;20298;-52
2024/01/07 01:09:44;;;;;;;82.15;75.35;;;;;;;7.31;100.00;99794.00;5001145;28;20513;-53
2024/01/07 01:12:13;;;;;;;83.38;76.57;;;;;;;7.41;100.00;99785.63;4994462;28;20054;-52
2024/01/07 01:14:39;;;;;;;101.93;94.38;;;;;;;7.64;100.00;99787.00;5005751;28;20394;-52
2024/01/07 01:17:06;;;;;;;89.90;82.60;;;;;;;7.43;100.00;99778.34;5001968;28;20291;-52
2024/01/07 01:19:33;;;;;;;87.18;80.32;;;;;;;7.37;100.00;99775.72;5006150;28;20060;-51
2024/01/07 01:22:00;;;;;;;78.22;71.80;;;;;;;7.26;100.00;99770.06;4999697;28;20057;-53
2024/01/07 01:24:27;;;;;;;73.28;67.28;;;;;;;7.19;100.00;99761.31;5006984;28;20053;-52
2024/01/07 01:26:54;;;;;;;84.78;78.03;;;;;;;7.90;100.00;99763.09;5002606;28;20065;-53
2024/01/07 01:29:22;;;;;;;81.60;74.90;;;;;;;7.81;100.00;99756.44;5002305;28;20050;-53
2024/01/07 01:31:49;;;;;;;85.28;78.38;;;;;;;8.10;100.00;99764.81;5004966;28;20357;-53
2024/01/07 01:34:16;;;;;;;92.43;85.03;;;;;;;7.88;100.00;99756.41;4997150;28;20571;-51
2024/01/07 01:36:43;;;;;;;92.50;85.25;;;;;;;8.19;100.00;99752.97;4995634;28;20058;-53
2024/01/07 01:39:09;;;;;;;90.03;82.80;;;;;;;8.12;100.00;99755.66;5002601;28;20054;-52
2024/01/07 01:41:36;;;;;;;82.55;75.95;;;;;;;8.13;100.00;99751.16;5003325;28;20885;-53
2024/01/07 01:44:03;;;;;;;85.43;78.32;;;;;;;8.57;100.00;99754.78;4999621;28;20053;-53
2024/01/07 01:46:34;;;;;;;90.70;83.40;;;;;;;8.83;100.00;99741.28;5010768;28;20046;-53
2024/01/07 01:49:02;;;;;;;89.38;82.28;;;;;;;9.18;100.00;99752.16;5001882;28;20547;-53
2024/01/07 01:51:29;;;;;;;97.70;90.07;;;;;;;9.39;100.00;99750.09;4995935;28;20516;-52
2024/01/07 01:53:57;;;;;;;106.18;97.93;;;;;;;9.40;100.00;99749.06;5001989;28;20526;-54
2024/01/07 01:56:28;;;;;;;86.70;79.70;;;;;;;8.55;100.00;99741.75;4998310;28;20046;-53
2024/01/07 01:58:55;;;;;;;84.35;77.65;;;;;;;9.05;100.00;99735.59;5003547;28;20068;-52
2024/01/07 02:01:23;;;;;;;84.43;77.53;;;;;;;8.92;100.00;99725.94;5011177;28;20053;-51
2024/01/07 02:03:53;;;;;;;94.75;87.35;;;;;;;8.81;100.00;99714.22;5001414;28;20050;-52
2024/01/07 02:06:21;;;;;;;88.70;81.70;;;;;;;8.39;100.00;99729.06;5000390;28;20133;-53
2024/01/07 02:08:49;;;;;;;81.28;74.57;;;;;;;8.42;100.00;99725.97;5001201;28;20068;-51
2024/01/07 02:11:20;;;;;;;86.72;79.80;;;;;;;8.74;100.00;99720.59;5008981;28;20494;-52
2024/01/07 02:13:46;;;;;;;86.47;79.38;;;;;;;8.77;100.00;99734.22;5008404;28;20476;-53
2024/01/07 02:16:13;;;;;;;91.93;84.63;;;;;;;8.53;100.00;99733.19;5007573;28;20520;-51
2024/01/07 02:18:42;;;;;;;91.25;84.13;;;;;;;8.15;100.00;99726.13;5002963;28;20550;-52
2024/01/07 02:21:11;;;;;;;88.78;81.68;;;;;;;8.28;100.00;99719.94;5009364;28;20046;-53
2024/01/07 02:23:38;;;;;;;86.57;79.47;;;;;;;8.32;100.00;99720.31;5008969;28;20057;-53
2024/01/07 02:26:07;;;;;;;91.82;84.55;;;;;;;8.67;100.00;99704.78;5000123;28;20052;-52
2024/01/07 02:28:34;;;;;;;100.43;92.63;;;;;;;9.06;100.00;99706.22;5010621;28;20069;-52
2024/01/07 02:31:01;;;;;;;84.80;78.13;;;;;;;8.71;100.00;99705.97;4998912;28;20044;-51
2024/01/07 02:33:29;;;;;;;80.88;74.38;;;;;;;8.31;100.00;99702.81;5007529;28;20132;-52
2024/01/07 02:35:56;;;;;;;90.65;83.63;;;;;;;9.04;100.00;99699.53;4990325;28;20077;-53
2024/01/07 02:38:22;;;;;;;99.15;91.68;;;;;;;8.60;100.00;99696.09;5001891;28;20060;-52
2024/01/07 02:40:49;;;;;;;90.47;83.38;;;;;;;8.34;100.00;99699.75;4988461;28;20050;-53
2024/01/07 02:43:18;;;;;;;88.40;81.00;;;;;;;8.48;100.00;99680.94;5001029;28;20049;-52
2024/01/07 02:45:44;;;;;;;88.45;81.18;;;;;;;8.15;100.00;99675.88;5006896;28;20438;-52
2024/01/07 02:48:11;;;;;;;89.22;82.15;;;;;;;8.14;100.00;99668.13;4999939;28;20057;-52
2024/01/07 02:50:38;;;;;;;117.30;108.80;;;;;;;8.40;100.00;99665.31;4987182;28;20054;-52
2024/01/07 02:53:05;;;;;;;102.03;94.00;;;;;;;8.52;100.00;99670.72;4997080;28;20054;-52
2024/01/07 02:55:32;;;;;;;102.95;94.55;;;;;;;8.64;100.00;99660.22;4998334;28;20065;-53
2024/01/07 02:57:59;;;;;;;99.63;91.40;;;;;;;8.79;100.00;99654.56;5004779;28;20053;-51
2024/01/07 03:00:27;;;;;;;104.70;96.18;;;;;;;9.59;100.00;99652.59;5011279;28;20050;-53
2024/01/07 03:02:54;;;;;;;94.50;86.85;;;;;;;9.66;100.00;99641.09;5008158;28;20086;-53
2024/01/07 03:05:20;;;;;;;90.43;83.10;;;;;;;9.81;100.00;99625.56;5009834;28;20449;-52
2024/01/07 03:07:47;;;;;;;96.00;88.18;;;;;;;9.97;100.00;99616.13;5004671;28;20100;-54
2024/01/07 03:10:14;;;;;;;99.60;91.50;;;;;;;10.29;100.00;99614.81;5008529;28;20046;-53
2024/01/07 03:12:41;;;;;;;105.13;97.22;;;;;;;10.28;100.00;99613.19;4999053;28;20445;-53
2024/01/07 03:15:09;;;;;;;122.30;113.50;;;;;;;10.27;100.00;99616.88;5006031;28;20050;-52
2024/01/07 03:17:37;;;;;;;99.20;91.35;;;;;;;9.74;100.00;99622.19;5004360;28;20060;-53
2024/01/07 03:20:04;;;;;;;125.78;116.57;;;;;;;9.72;100.00;99616.31;4995177;28;20052;-52
2024/01/07 03:22:31;;;;;;;116.47;107.65;;;;;;;10.31;100.00;99617.22;5003416;28;20054;-52
2024/01/07 03:24:58;;;;;;;133.80;123.95;;;;;;;10.40;100.00;99605.22;5000810;28;20460;-53
2024/01/07 03:27:25;;;;;;;128.93;119.00;;;;;;;10.43;100.00;99604.75;5005673;28;20050;-53
2024/01/07 03:29:51;;;;;;;122.20;113.30;;;;;;;10.31;100.00;99590.69;4999789;28;20496;-52
2024/01/07 03:32:18;;;;;;;107.93;99.97;;;;;;;10.29;100.00;99582.97;5003326;28;20050;-52
2024/01/07 03:34:47;;;;;;;88.40;81.70;;;;;;;10.31;100.00;99586.19;5002703;28;20451;-51
2024/01/07 03:37:14;;;;;;;107.15;99.18;;;;;;;10.35;100.00;99597.16;5002782;28;20054;-52
2024/01/07 03:39:40;;;;;;;121.60;112.70;;;;;;;10.38;100.00;99599.34;5008017;28;20057;-52
2024/01/07 03:42:11;;;;;;;122.82;113.93;;;;;;;10.54;100.00;99592.53;5007667;28;20046;-51
2024/01/07 03:44:38;;;;;;;142.27;132.27;;;;;;;10.70;100.00;99591.78;4997931;28;20060;-53
2024/01/07 03:47:05;;;;;;;112.30;104.35;;;;;;;10.69;100.00;99590.19;4998198;28;20053;-52
2024/01/07 03:49:32;;;;;;;113.57;105.07;;;;;;;10.78;100.00;99580.81;5006812;28;20053;-53
2024/01/07 03:52:00;;;;;;;121.35;112.30;;;;;;;11.05;100.00;99584.78;4985347;28;20053;-53
2024/01/07 03:54:27;;;;;;;119.60;110.63;;;;;;;11.05;100.00;99582.13;5003048;28;20049;-53
2024/01/07 03:56:54;;;;;;;109.28;100.88;;;;;;;10.89;100.00;99587.16;5005881;28;20451;-53
2024/01/07 03:59:23;;;;;;;100.40;92.72;;;;;;;10.94;100.00;99581.13;5001133;28;20060;-53
2024/01/07 04:01:49;;;;;;;90.35;83.45;;;;;;;11.40;100.00;99576.66;5005395;28;20054;-53
2024/01/07 04:04:19;;;;;;;93.57;86.32;;;;;;;11.48;100.00;99570.97;5010783;28;20463;-51
2024/01/07 04:06:45;;;;;;;100.15;92.55;;;;;;;11.39;100.00;99569.75;5007266;28;20515;-51
2024/01/07 04:09:14;;;;;;;117.20;108.30;;;;;;;11.50;100.00;99574.19;5003633;28;20404;-53
2024/01/07 04:11:41;;;;;;;109.40;101.00;;;;;;;11.56;100.00;99565.25;5009496;28;20096;-51
2024/01/07 04:14:08;;;;;;;125.43;115.03;;;;;;;11.37;100.00;99556.66;5010971;28;20103;-52
2024/01/07 04:16:36;;;;;;;126.63;116.00;;;;;;;11.67;100.00;99553.72;5005298;28;20435;-53
2024/01/07 04:19:02;;;;;;;127.30;116.80;;;;;;;11.79;100.00;99553.66;4999798;28;20508;-51
2024/01/07 04:21:29;;;;;;;121.50;111.85;;;;;;;12.01;100.00;99552.94;5010155;28;20420;-53
2024/01/07 04:23:56;;;;;;;110.25;102.00;;;;;;;12.08;100.00;99554.41;5000222;28;20065;-51
2024/01/07 04:26:24;;;;;;;109.07;100.55;;;;;;;12.07;100.00;99558.13;5009496;28;20496;-63
2024/01/07 04:28:51;;;;;;;132.73;123.45;;;;;;;12.10;100.00;99556.81;4999332;28;20546;-63
2024/01/07 04:31:18;;;;;;;116.15;107.25;;;;;;;12.02;100.00;99551.91;5009265;28;20125;-63
2024/01/07 04:33:45;;;;;;;119.13;109.80;;;;;;;11.89;100.00;99559.19;5006012;28;20428;-63
2024/01/07 04:36:12;;;;;;;123.22;113.60;;;;;;;11.67;100.00;99561.72;5003386;28;20056;-63
2024/01/07 04:38:39;;;;;;;117.15;107.80;;;;;;;11.76;100.00;99569.28;5009046;28;20258;-63
2024/01/07 04:41:07;;;;;;;122.07;112.20;;;;;;;11.64;100.00;99556.88;5008124;28;20052;-63
2024/01/07 04:43:36;;;;;;;133.63;123.07;;;;;;;11.83;100.00;99556.63;5004036;28;20046;-63
2024/01/07 04:46:03;;;;;;;129.02;118.28;;;;;;;11.77;100.00;99550.44;5004009;28;20054;-63
2024/01/07 04:48:31;;;;;;;130.05;119.15;;;;;;;11.68;100.00;99547.38;5004845;28;20058;-62
2024/01/07 04:50:58;;;;;;;128.80;117.60;;;;;;;11.63;100.00;99527.88;4999292;28;20068;-63
2024/01/07 04:53:25;;;;;;;134.27;122.28;;;;;;;11.64;100.00;99527.63;5005147;28;20140;-63
2024/01/07 04:55:52;;;;;;;164.90;150.40;;;;;;;11.50;100.00;99515.69;4998865;28;20072;-63
2024/01/07 04:58:19;;;;;;;144.65;131.88;;;;;;;11.56;100.00;99509.41;5007015;28;20503;-63
2024/01/07 05:00:47;;;;;;;161.80;148.05;;;;;;;11.39;100.00;99506.75;5007273;28;20506;-63
2024/01/07 05:03:14;;;;;;;141.85;129.15;;;;;;;11.36;100.00;99495.78;5004884;28;20840;-63
2024/01/07 05:05:41;;;;;;;137.40;125.15;;;;;;;11.37;100.00;99479.56;5012980;28;20414;-63
2024/01/07 05:08:08;;;;;;;165.20;151.35;;;;;;;11.32;100.00;99484.03;4997752;28;20049;-63
2024/01/07 05:10:35;;;;;;;190.65;175.25;;;;;;;11.42;100.00;99481.53;5004654;28;20503;-63
2024/01/07 05:13:05;;;;;;;149.23;136.00;;;;;;;11.43;100.00;99467.97;5003731;28;20534;-63
2024/01/07 05:15:32;;;;;;;143.95;131.50;;;;;;;11.33;100.00;99454.53;5014042;28;20057;-63
2024/01/07 05:18:02;;;;;;;155.75;142.48;;;;;;;11.31;100.00;99448.66;5002648;28;20061;-63
2024/01/07 05:20:29;;;;;;;171.70;157.30;;;;;;;11.41;100.00;99454.13;5010291;28;20041;-63
2024/01/07 05:22:56;;;;;;;162.85;148.77;;;;;;;11.39;100.00;99461.53;5002850;28;20058;-63
2024/01/07 05:25:22;;;;;;;151.90;138.52;;;;;;;11.45;100.00;99465.91;5003654;28;20046;-63
2024/01/07 05:27:49;;;;;;;159.18;145.77;;;;;;;11.36;100.00;99453.25;5005171;28;20123;-63
2024/01/07 05:30:16;;;;;;;150.45;137.65;;;;;;;11.29;100.00;99447.31;5007721;28;20049;-63
2024/01/07 05:32:43;;;;;;;150.40;137.60;;;;;;;11.32;100.00;99449.47;5004457;28;20058;-63
2024/01/07 05:35:11;;;;;;;152.32;138.77;;;;;;;11.32;100.00;99455.59;4998692;28;20453;-63
2024/01/07 05:37:38;;;;;;;148.10;135.07;;;;;;;11.33;100.00;99445.75;5006289;28;20443;-63
2024/01/07 05:40:06;;;;;;;172.05;157.85;;;;;;;11.27;100.00;99439.56;5008535;28;20049;-63
2024/01/07 05:42:33;;;;;;;159.23;145.88;;;;;;;11.29;100.00;99437.47;5001935;28;20101;-63
2024/01/07 05:45:00;;;;;;;141.18;128.88;;;;;;;11.34;100.00;99439.38;5002142;28;20408;-63
2024/01/07 05:47:29;;;;;;;148.63;135.52;;;;;;;11.36;100.00;99432.78;5002392;28;20049;-63
2024/01/07 05:49:56;;;;;;;174.38;160.02;;;;;;;11.31;100.00;99424.72;5007697;28;20064;-63
2024/01/07 05:52:25;;;;;;;153.32;140.52;;;;;;;11.26;100.00;99415.88;5002243;28;20038;-63
2024/01/07 05:54:52;;;;;;;154.35;141.90;;;;;;;11.38;100.00;99412.09;5003299;28;20104;-52
2024/01/07 05:57:19;;;;;;;149.85;137.75;;;;;;;11.35;100.00;99401.94;5005143;28;20042;-53
2024/01/07 05:59:46;;;;;;;169.55;156.07;;;;;;;11.31;100.00;99398.13;5003531;28;20065;-52
2024/01/07 06:02:14;;;;;;;151.15;138.32;;;;;;;11.46;100.00;99387.72;5005767;28;20535;-53
2024/01/07 06:04:41;;;;;;;146.02;133.98;;;;;;;11.34;100.00;99373.72;5013960;28;20050;-63
2024/01/07 06:07:07;;;;;;;136.70;125.05;;;;;;;11.38;100.00;99372.22;5008864;28;20054;-63
2024/01/07 06:09:36;;;;;;;152.13;140.15;;;;;;;11.32;100.00;99356.44;5007871;28;20054;-51
2024/01/07 06:12:03;;;;;;;144.43;132.40;;;;;;;11.34;100.00;99354.31;5004914;28;20566;-63
2024/01/07 06:14:30;;;;;;;143.55;131.77;;;;;;;11.35;100.00;99350.63;5008934;28;20096;-63
2024/01/07 06:16:57;;;;;;;149.75;137.35;;;;;;;11.51;100.00;99344.47;5002786;28;20865;-63
2024/01/07 06:19:24;;;;;;;141.70;129.10;;;;;;;11.37;100.00;99341.34;5003659;28;20551;-64
2024/01/07 06:21:51;;;;;;;165.75;153.60;;;;;;;11.41;100.00;99337.16;5004227;28;20157;-65
2024/01/07 06:24:18;;;;;;;141.50;130.20;;;;;;;11.37;100.00;99343.19;5010719;28;20158;-63
2024/01/07 06:26:46;;;;;;;141.73;130.43;;;;;;;11.36;100.00;99342.41;5007643;28;20468;-63
2024/01/07 06:29:13;;;;;;;140.38;129.05;;;;;;;11.34;100.00;99343.69;5005171;28;20053;-63
2024/01/07 06:31:45;;;;;;;140.55;128.88;;;;;;;11.37;100.00;99332.56;5002276;28;20448;-63
2024/01/07 06:34:13;;;;;;;133.43;122.43;;;;;;;11.32;100.00;99333.31;5003656;28;20464;-63
2024/01/07 06:36:41;;;;;;;145.68;134.70;;;;;;;11.37;100.00;99336.03;5001135;28;20058;-63
2024/01/07 06:39:08;;;;;;;148.73;137.73;;;;;;;11.33;100.00;99329.59;5002813;28;20513;-63
2024/01/07 06:41:35;;;;;;;150.70;138.98;;;;;;;11.09;100.00;99320.22;5007772;28;20058;-63
2024/01/07 06:44:03;;;;;;;134.63;124.03;;;;;;;11.36;100.00;99317.69;5011692;28;20072;-63
2024/01/07 06:46:30;;;;;;;141.52;130.77;;;;;;;11.23;100.00;99322.28;5013896;28;20054;-63
2024/01/07 06:48:57;;;;;;;138.45;127.90;;;;;;;11.31;100.00;99320.25;5005266;28;20590;-63
2024/01/07 06:51:24;;;;;;;141.70;130.90;;;;;;;11.26;100.00;99322.88;5000630;28;20038;-64
2024/01/07 06:53:51;;;;;;;134.95;124.57;;;;;;;11.33;100.00;99320.81;5004179;28;20054;-63
2024/01/07 06:56:18;;;;;;;142.02;131.02;;;;;;;11.26;100.00;99328.97;5013321;28;20045;-63
2024/01/07 06:58:45;;;;;;;136.65;126.05;;;;;;;11.27;100.00;99309.31;5013288;28;20065;-63
2024/01/07 07:01:13;;;;;;;132.45;122.70;;;;;;;11.45;100.00;99311.69;5011438;28;20053;-63
2024/01/07 07:03:41;;;;;;;132.07;122.45;;;;;;;11.43;100.00;99310.31;5010847;28;20060;-64
2024/01/07 07:06:08;;;;;;;135.60;125.72;;;;;;;11.42;100.00;99303.41;5003407;28;20148;-52
2024/01/07 07:08:35;;;;;;;126.50;116.88;;;;;;;11.38;100.00;99296.97;5001340;28;20088;-52
2024/01/07 07:11:03;;;;;;;123.85;114.50;;;;;;;11.52;100.00;99290.22;4995798;28;20049;-53
2024/01/07 07:13:29;;;;;;;131.23;121.28;;;;;;;11.45;100.00;99281.66;5005573;28;20066;-51
2024/01/07 07:15:56;;;;;;;125.28;116.28;;;;;;;11.50;100.00;99271.09;5001544;28;20052;-52
2024/01/07 07:18:25;;;;;;;131.15;121.85;;;;;;;11.57;100.00;99277.00;4992351;28;20052;-53
2024/01/07 07:20:52;;;;;;;136.43;126.88;;;;;;;11.51;100.00;99278.00;5002087;28;20053;-53
2024/01/07 07:23:19;;;;;;;128.73;119.22;;;;;;;11.61;100.00;99285.28;4999977;28;20512;-53
2024/01/07 07:25:46;;;;;;;128.30;119.07;;;;;;;11.71;100.00;99290.75;5000788;28;20512;-53
2024/01/07 07:28:12;;;;;;;126.78;117.97;;;;;;;11.90;100.00;99286.75;5006170;28;20141;-53
2024/01/07 07:30:39;;;;;;;116.25;108.55;;;;;;;12.01;100.00;99276.19;5008246;28;20565;-53
2024/01/07 07:33:06;;;;;;;114.47;106.38;;;;;;;12.00;100.00;99264.75;5002027;28;20053;-53
2024/01/07 07:35:34;;;;;;;107.50;100.10;;;;;;;12.20;100.00;99277.47;5005677;28;20057;-52
2024/01/07 07:38:01;;;;;;;105.82;98.70;;;;;;;12.15;100.00;99278.22;5003312;28;20052;-52
2024/01/07 07:40:28;;;;;;;100.60;93.70;;;;;;;12.11;100.00;99271.81;5004641;28;20455;-63
2024/01/07 07:42:55;;;;;;;106.68;99.38;;;;;;;12.13;100.00;99269.69;5003219;28;20137;-63
2024/01/07 07:45:22;;;;;;;107.10;99.90;;;;;;;12.08;100.00;99287.47;5001800;28;20064;-63
2024/01/07 07:47:49;;;;;;;113.30;105.63;;;;;;;11.99;100.00;99279.13;5007935;28;20050;-63
2024/01/07 07:50:15;;;;;;;105.25;98.15;;;;;;;11.99;100.00;99286.31;5001660;28;20054;-63
2024/01/07 07:52:44;;;;;;;81.07;75.45;;;;;;;12.25;100.00;99285.50;4997644;28;20049;-63
2024/01/07 07:55:11;;;;;;;66.32;61.55;;;;;;;12.27;100.00;99277.28;5005659;28;20053;-63
2024/01/07 07:57:38;;;;;;;74.72;69.63;;;;;;;12.22;100.00;99291.31;5009198;28;20439;-63
2024/01/07 08:00:06;;;;;;;62.13;57.03;;;;;;;12.32;100.00;99296.75;5003881;28;20519;-63
2024/01/07 08:02:33;;;;;;;65.60;61.00;;;;;;;12.25;100.00;99285.50;4998905;28;20416;-63
2024/01/07 08:05:00;;;;;;;64.05;59.55;;;;;;;12.20;100.00;99284.66;5002179;28;20050;-59
2024/01/07 08:07:27;;;;;;;77.35;71.88;;;;;;;11.96;100.00;99289.47;5006690;28;20522;-53
2024/01/07 08:09:56;;;;;;;69.90;65.20;;;;;;;12.13;100.00;99285.66;5010571;28;20053;-53
2024/01/07 08:12:23;;;;;;;58.65;54.75;;;;;;;12.28;100.00;99281.53;5004129;28;20562;-52
2024/01/07 08:14:50;;;;;;;52.40;48.90;;;;;;;12.43;100.00;99263.03;5000032;28;20054;-51
2024/01/07 08:17:17;;;;;;;51.28;47.78;;;;;;;12.35;100.00;99269.63;5006012;28;20140;-52
2024/01/07 08:19:44;;;;;;;51.38;47.78;;;;;;;12.32;100.00;99269.34;5005413;28;20131;-53
2024/01/07 08:22:12;;;;;;;47.90;44.50;;;;;;;12.38;100.00;99279.00;5002569;28;20046;-51
2024/01/07 08:24:39;;;;;;;44.50;41.35;;;;;;;12.25;100.00;99288.16;4997795;28;20058;-52
2024/01/07 08:27:07;;;;;;;43.20;40.20;;;;;;;12.42;100.00;99293.38;5002032;28;20073;-63
2024/01/07 08:29:35;;;;;;;38.17;35.38;;;;;;;12.47;100.00;99287.31;5002528;28;20060;-63
2024/01/07 08:32:02;;;;;;;36.95;34.20;;;;;;;12.56;100.00;99283.94;4995482;28;20570;-63
2024/01/07 08:34:28;;;;;;;30.77;28.58;;;;;;;12.65;100.00;99273.63;5000935;28;20511;-64
2024/01/07 08:36:55;;;;;;;27.70;25.50;;;;;;;12.67;100.00;99268.81;5000126;28;20057;-51
2024/01/07 08:39:22;;;;;;;24.70;22.98;;;;;;;12.64;100.00;99273.88;5005322;28;20061;-53
2024/01/07 08:41:49;;;;;;;23.05;21.45;;;;;;;12.67;100.00;99270.69;5002986;28;20061;-53
2024/01/07 08:44:18;;;;;;;23.52;21.92;;;;;;;12.79;100.00;99258.78;4997387;28;20492;-53
2024/01/07 08:46:45;;;;;;;22.20;20.60;;;;;;;12.88;100.00;99267.13;5001965;28;20060;-53
2024/01/07 08:49:13;;;;;;;23.25;21.60;;;;;;;12.83;100.00;99270.56;5005432;28;20089;-53
2024/01/07 08:51:40;;;;;;;23.33;21.63;;;;;;;12.79;100.00;99258.00;5002508;28;20046;-53
2024/01/07 08:54:07;;;;;;;22.17;20.58;;;;;;;12.82;100.00;99263.59;5007560;28;20523;-52
2024/01/07 08:56:34;;;;;;;21.50;19.90;;;;;;;12.90;100.00;99258.88;5013209;28;20470;-52
2024/01/07 08:59:01;;;;;;;20.58;19.08;;;;;;;12.85;100.00;99248.97;5010773;28;20056;-51
2024/01/07 09:01:29;;;;;;;20.45;18.95;;;;;;;13.03;100.00;99251.22;5004231;28;20046;-53
2024/01/07 09:03:56;;;;;;;27.23;25.10;;;;;;;12.96;100.00;99253.31;5005508;28;20065;-52
2024/01/07 09:06:24;;;;;;;24.38;22.58;;;;;;;13.01;100.00;99256.03;5008309;28;20085;-54
2024/01/07 09:08:50;;;;;;;22.10;20.27;;;;;;;12.83;100.00;99261.78;5003689;28;20056;-52
2024/01/07 09:11:20;;;;;;;20.63;19.13;;;;;;;12.96;100.00;99263.97;4998890;28;20129;-51
2024/01/07 09:13:48;;;;;;;22.08;20.38;;;;;;;13.19;100.00;99260.13;5006710;28;20451;-51
2024/01/07 09:16:15;;;;;;;21.48;19.88;;;;;;;13.48;100.00;99257.91;5003350;28;20158;-51
2024/01/07 09:18:44;;;;;;;20.50;19.00;;;;;;;13.80;100.00;99246.28;5005120;28;20085;-53
2024/01/07 09:21:11;;;;;;;21.60;20.00;;;;;;;14.01;100.00;99252.47;5006371;28;20788;-53
2024/01/07 09:23:38;;;;;;;20.77;19.27;;;;;;;13.92;100.00;99246.06;5007395;28;20042;-50
2024/01/07 09:26:05;;;;;;;20.30;18.80;;;;;;;13.92;100.00;99238.03;5003834;28;20046;-63
2024/01/07 09:28:32;;;;;;;21.02;19.52;;;;;;;13.95;100.00;99234.84;5006480;28;20050;-63
2024/01/07 09:30:59;;;;;;;22.15;20.60;;;;;;;13.96;100.00;99245.25;5006710;28;20049;-63
2024/01/07 09:33:26;;;;;;;21.88;20.27;;;;;;;13.91;100.00;99239.09;5006943;28;20046;-63
2024/01/07 09:35:55;;;;;;;20.63;19.13;;;;;;;13.77;100.00;99240.66;5008201;28;20057;-63
2024/01/07 09:38:21;;;;;;;21.60;19.92;;;;;;;13.75;100.00;99249.72;5001891;28;20135;-63
2024/01/07 09:40:49;;;;;;;21.77;20.17;;;;;;;13.70;100.00;99246.25;5004974;28;20061;-63
2024/01/07 09:43:16;;;;;;;20.77;19.17;;;;;;;13.57;100.00;99249.41;5006830;28;20065;-63
2024/01/07 09:45:47;;;;;;;23.85;22.00;;;;;;;13.40;100.00;99249.59;5006931;28;20412;-64
2024/01/07 09:48:14;;;;;;;21.60;20.00;;;;;;;13.36;100.00;99254.63;5005498;28;20128;-64
2024/01/07 09:50:41;;;;;;;28.15;25.65;;;;;;;13.27;100.00;99258.84;5005524;28;20069;-63
2024/01/07 09:53:16;;;;;;;37.78;35.17;;;;;;;13.19;100.00;99257.47;4994119;28;20050;-63
2024/01/07 09:55:53;;;;;;;30.05;28.02;;;;;;;13.11;100.00;99255.28;4999318;28;20089;-63
2024/01/07 09:58:20;;;;;;;29.92;27.42;;;;;;;13.03;100.00;99274.41;4997482;28;20480;-63
2024/01/07 10:00:47;;;;;;;29.25;27.35;;;;;;;12.60;100.00;99303.66;5003274;28;20047;-63
2024/01/07 10:03:14;;;;;;;44.22;41.13;;;;;;;10.60;100.00;99325.28;5004438;28;20054;-63
2024/01/07 10:05:42;;;;;;;48.22;45.03;;;;;;;9.86;100.00;99318.88;5001682;28;20061;-63
2024/01/07 10:08:10;;;;;;;54.30;50.70;;;;;;;9.65;100.00;99335.38;5003908;28;20046;-63
2024/01/07 10:10:38;;;;;;;60.20;56.45;;;;;;;9.44;100.00;99334.16;5006458;28;20181;-63
2024/01/07 10:13:05;;;;;;;62.95;58.80;;;;;;;9.74;100.00;99341.94;5003552;28;20565;-63
2024/01/07 10:15:33;;;;;;;71.50;66.95;;;;;;;9.44;100.00;99330.69;5003532;28;20057;-63
2024/01/07 10:18:05;;;;;;;75.47;70.68;;;;;;;9.71;100.00;99337.09;5004064;28;20060;-63
2024/01/07 10:20:33;;;;;;;67.82;63.47;;;;;;;9.62;100.00;99333.19;5007601;28;20068;-64
2024/01/07 10:23:00;;;;;;;73.63;68.82;;;;;;;9.55;100.00;99340.47;5001620;28;20188;-63
2024/01/07 10:25:29;;;;;;;72.47;67.90;;;;;;;9.35;100.00;99339.00;5003584;28;20053;-63
2024/01/07 10:27:59;;;;;;;75.75;70.95;;;;;;;9.51;100.00;99336.69;5006202;28;20042;-63
2024/01/07 10:30:26;;;;;;;76.40;71.30;;;;;;;9.46;100.00;99333.91;5006471;28;20052;-63
2024/01/07 10:32:57;;;;;;;77.85;72.78;;;;;;;9.66;100.00;99333.56;4999227;28;20073;-63
2024/01/07 10:35:34;;;;;;;78.50;73.20;;;;;;;9.72;100.00;99327.31;5004105;28;20049;-63
2024/01/07 10:38:02;;;;;;;78.78;73.53;;;;;;;9.73;100.00;99324.41;5004128;28;20508;-63
2024/01/07 10:40:32;;;;;;;76.28;71.28;;;;;;;9.94;100.00;99328.28;5009317;28;20049;-63
2024/01/07 10:42:59;;;;;;;76.85;71.95;;;;;;;10.02;100.00;99324.47;5004472;28;20511;-63
2024/01/07 10:45:27;;;;;;;72.88;68.00;;;;;;;9.93;100.00;99326.69;5003959;28;20050;-63
2024/01/07 10:47:58;;;;;;;70.35;65.68;;;;;;;10.11;100.00;99327.56;5003375;28;20519;-63
2024/01/07 10:50:27;;;;;;;70.30;65.43;;;;;;;10.15;100.00;99318.06;5004744;28;20451;-63
2024/01/07 10:52:59;;;;;;;57.10;53.20;;;;;;;10.49;100.00;99316.31;4999269;28;20519;-63
2024/01/07 10:55:32;;;;;;;57.00;53.10;;;;;;;10.73;100.00;99317.00;5003893;28;20517;-63
2024/01/07 10:58:01;;;;;;;49.97;46.58;;;;;;;10.54;100.00;99311.91;5004502;28;20304;-63
2024/01/07 11:00:29;;;;;;;49.55;46.05;;;;;;;10.94;100.00;99310.16;5008544;28;20050;-63
2024/01/07 11:03:18;;;;;;;50.13;46.53;;;;;;;10.80;100.00;99311.50;4996125;28;20104;-63
2024/01/07 11:05:51;;;;;;;45.92;42.50;;;;;;;10.75;100.00;99312.25;5005151;28;20057;-63
2024/01/07 11:08:26;;;;;;;47.13;43.80;;;;;;;10.86;100.00;99299.91;5002120;28;20114;-63